Time;durP1;ratioP1;P1;durP2;ratioP2;P2;SDS_P1;SDS_P2;PMS_P1;PMS_P2;Temp;Humidity;BMP_temperature;BMP_pressure;BME280_temperature;BME280_humidity;BME280_pressure;Samples;Min_cycle;Max_cycle;Signal;HPM_P1;HPM_P2
2022/10/13 00:00:30;;;;;;;18.02;9.32;;;10.70;99.90;;;;;;5070621;28;20064;-79
2022/10/13 00:03:00;;;;;;;;;;;10.70;99.90;;;;;;5071542;28;20044;-79
2022/10/13 00:05:27;;;;;;;20.05;8.18;;;10.70;99.90;;;;;;5070559;28;19916;-79
2022/10/13 00:07:53;;;;;;;;;;;10.70;99.90;;;;;;5020133;28;20539;-79
2022/10/13 00:10:18;;;;;;;21.65;9.23;;;10.80;99.90;;;;;;5053768;28;19920;-79
2022/10/13 00:12:44;;;;;;;22.30;8.67;;;10.80;99.90;;;;;;5071075;28;20123;-79
2022/10/13 00:15:10;;;;;;;21.90;8.90;;;10.80;99.90;;;;;;5054724;28;20071;-80
2022/10/13 00:17:35;;;;;;;19.38;9.52;;;10.80;99.90;;;;;;5054067;28;20066;-79
2022/10/13 00:20:03;;;;;;;20.60;9.40;;;10.70;99.90;;;;;;5054162;28;20404;-79
2022/10/13 00:22:29;;;;;;;19.35;9.55;;;10.70;99.90;;;;;;5070145;28;20040;-79
2022/10/13 00:24:54;;;;;;;19.33;9.50;;;10.60;99.90;;;;;;5054181;28;20098;-79
2022/10/13 00:27:20;;;;;;;20.20;9.23;;;11.00;99.90;;;;;;5070115;28;20689;-79
2022/10/13 00:29:46;;;;;;;15.57;9.27;;;10.60;99.90;;;;;;5053788;28;20553;-79
2022/10/13 00:32:12;;;;;;;16.05;9.30;;;10.60;99.90;;;;;;5070496;28;20043;-79
2022/10/13 00:34:38;;;;;;;18.77;9.50;;;10.60;99.90;;;;;;5070208;28;20062;-79
2022/10/13 00:37:04;;;;;;;21.58;9.27;;;10.60;99.90;;;;;;5070318;28;20040;-79
2022/10/13 00:39:30;;;;;;;16.95;9.82;;;10.60;99.90;;;;;;5053189;28;20040;-79
2022/10/13 00:41:57;;;;;;;;;;;10.60;99.90;;;;;;5070979;28;20465;-79
2022/10/13 00:44:56;;;;;;;15.85;8.88;;;10.50;99.90;;;;;;5052723;28;19916;-79
2022/10/13 00:47:23;;;;;;;18.08;9.48;;;10.50;99.90;;;;;;5070127;28;20082;-79
2022/10/13 00:49:49;;;;;;;21.20;10.00;;;10.60;99.90;;;;;;5053631;28;20051;-79
2022/10/13 00:52:16;;;;;;;;;;;10.50;99.90;;;;;;5070548;28;20043;-80
2022/10/13 00:54:42;;;;;;;20.77;8.90;;;10.60;99.90;;;;;;5070253;28;20376;-79
2022/10/13 00:57:09;;;;;;;19.45;9.25;;;10.50;99.90;;;;;;5070088;28;20076;-79
2022/10/13 00:59:36;;;;;;;19.83;9.63;;;10.50;99.90;;;;;;5052946;28;20029;-79
2022/10/13 01:02:03;;;;;;;23.23;8.98;;;10.50;99.90;;;;;;5018868;28;20040;-79
2022/10/13 01:04:37;;;;;;;22.20;10.15;;;10.50;99.90;;;;;;5053026;28;20037;-79
2022/10/13 01:07:04;;;;;;;19.00;8.85;;;10.50;99.90;;;;;;5068970;28;20039;-79
2022/10/13 01:09:36;;;;;;;21.60;10.25;;;10.60;99.90;;;;;;5052579;28;20033;-79
2022/10/13 01:12:21;;;;;;;22.25;10.48;;;10.60;99.90;;;;;;5053532;28;20036;-79
2022/10/13 01:14:59;;;;;;;22.02;9.90;;;10.60;99.90;;;;;;5068958;28;20071;-80
2022/10/13 01:17:37;;;;;;;19.17;10.80;;;10.60;99.90;;;;;;5051620;28;20392;-79
2022/10/13 01:20:38;;;;;;;17.10;10.00;;;10.60;99.90;;;;;;5068439;28;20052;-79
2022/10/13 01:23:04;;;;;;;19.88;10.38;;;10.60;99.90;;;;;;5069853;28;20037;-79
2022/10/13 01:25:41;;;;;;;20.57;10.37;;;10.60;99.90;;;;;;5052866;28;20131;-79
2022/10/13 01:28:33;;;;;;;21.00;9.40;;;10.60;99.90;;;;;;5068772;28;20033;-79
2022/10/13 01:31:32;;;;;;;21.45;9.73;;;10.60;99.90;;;;;;5068115;28;20036;-80
2022/10/13 01:34:15;;;;;;;23.83;10.63;;;10.60;99.90;;;;;;5049642;28;20057;-79
2022/10/13 01:37:26;;;;;;;21.80;9.82;;;10.60;99.90;;;;;;5069443;28;20052;-80
2022/10/13 01:40:22;;;;;;;18.52;9.30;;;10.60;99.90;;;;;;5012316;28;20591;-80
2022/10/13 01:43:03;;;;;;;20.48;9.73;;;10.60;99.90;;;;;;5046898;28;20123;-80
2022/10/13 01:45:34;;;;;;;23.33;10.18;;;10.70;99.90;;;;;;5069318;28;20037;-80
2022/10/13 01:48:02;;;;;;;20.15;9.82;;;10.60;99.90;;;;;;5069625;28;20052;-80
2022/10/13 01:50:29;;;;;;;23.20;10.73;;;10.60;99.90;;;;;;5069318;28;20039;-80
2022/10/13 01:52:58;;;;;;;22.85;10.35;;;10.60;99.90;;;;;;5069599;28;20078;-80
2022/10/13 01:55:24;;;;;;;18.58;9.57;;;10.60;99.90;;;;;;5068740;28;20040;-80
2022/10/13 01:57:49;;;;;;;18.00;9.43;;;10.60;99.90;;;;;;5073977;28;20094;-79
2022/10/13 02:00:18;;;;;;;21.67;9.83;;;10.80;99.90;;;;;;5057014;28;20040;-80
2022/10/13 02:02:54;;;;;;;17.38;9.98;;;10.60;99.90;;;;;;5073263;28;20078;-80
2022/10/13 02:06:08;;;;;;;21.08;10.75;;;10.60;99.90;;;;;;5073882;28;20512;-79
2022/10/13 02:08:44;;;;;;;19.90;9.70;;;10.60;99.90;;;;;;5059902;28;20542;-79
2022/10/13 02:11:19;;;;;;;24.05;9.93;;;10.70;99.90;;;;;;5055079;28;20062;-79
2022/10/13 02:13:59;;;;;;;20.88;9.05;;;10.70;99.90;;;;;;5073315;28;20048;-79
2022/10/13 02:16:30;;;;;;;21.35;9.93;;;10.70;99.90;;;;;;5073100;28;20063;-80
2022/10/13 02:18:56;;;;;;;22.58;11.57;;;10.70;99.90;;;;;;5073588;28;20546;-79
2022/10/13 02:21:22;;;;;;;23.10;10.45;;;10.60;99.90;;;;;;5073259;28;20481;-79
2022/10/13 02:23:48;;;;;;;26.48;10.77;;;10.60;99.90;;;;;;5072811;28;20056;-80
2022/10/13 02:26:14;;;;;;;18.98;10.20;;;10.60;99.90;;;;;;5056718;28;20086;-79
2022/10/13 02:28:43;;;;;;;20.00;10.90;;;10.50;99.90;;;;;;5055925;28;20086;-79
2022/10/13 02:31:09;;;;;;;21.02;10.80;;;10.50;99.90;;;;;;5072887;28;20056;-79
2022/10/13 02:33:34;;;;;;;19.75;10.55;;;10.50;99.90;;;;;;5072312;28;20128;-79
2022/10/13 02:36:00;;;;;;;23.90;10.50;;;10.50;99.90;;;;;;5056429;28;20028;-79
2022/10/13 02:38:26;;;;;;;21.93;10.90;;;10.40;99.90;;;;;;5055960;28;20400;-79
2022/10/13 02:40:53;;;;;;;20.10;11.13;;;10.40;99.90;;;;;;5072760;28;20040;-80
2022/10/13 02:43:19;;;;;;;20.83;11.15;;;10.30;99.90;;;;;;5072768;28;20264;-80
2022/10/13 02:45:45;;;;;;;21.83;11.00;;;10.30;99.90;;;;;;5039097;28;20071;-80
2022/10/13 02:48:10;;;;;;;22.03;10.33;;;10.30;99.90;;;;;;5072697;28;20477;-80
2022/10/13 02:50:36;;;;;;;24.50;11.27;;;10.30;99.90;;;;;;5072129;28;20298;-80
2022/10/13 02:53:02;;;;;;;25.00;12.13;;;10.30;99.90;;;;;;5072667;28;20032;-80
2022/10/13 02:55:27;;;;;;;25.15;12.10;;;10.20;99.90;;;;;;5072227;28;20080;-80
2022/10/13 02:57:53;;;;;;;26.20;12.30;;;10.30;99.90;;;;;;5055433;28;20033;-80
2022/10/13 03:00:19;;;;;;;22.73;11.60;;;10.20;99.90;;;;;;5072353;28;20040;-80
2022/10/13 03:02:45;;;;;;;25.58;11.52;;;10.20;99.90;;;;;;5072089;28;20040;-81
2022/10/13 03:05:10;;;;;;;25.87;11.57;;;10.20;99.90;;;;;;5056184;28;20048;-81
2022/10/13 03:07:36;;;;;;;21.43;11.40;;;10.20;99.90;;;;;;5054447;28;20311;-80
2022/10/13 03:10:03;;;;;;;29.53;12.53;;;10.30;99.90;;;;;;5039381;28;20131;-80
2022/10/13 03:12:29;;;;;;;22.63;12.05;;;10.30;99.90;;;;;;5072276;28;20634;-80
2022/10/13 03:14:55;;;;;;;27.17;12.10;;;10.20;99.90;;;;;;5072136;28;20040;-80
2022/10/13 03:17:21;;;;;;;23.67;11.80;;;10.20;99.90;;;;;;5072441;28;20428;-80
2022/10/13 03:19:47;;;;;;;29.60;12.23;;;10.20;99.90;;;;;;5055677;28;20424;-80
2022/10/13 03:22:14;;;;;;;25.38;11.93;;;10.20;99.90;;;;;;5072236;28;20042;-80
2022/10/13 03:24:40;;;;;;;25.45;12.15;;;10.20;99.90;;;;;;5054694;28;20040;-80
2022/10/13 03:27:06;;;;;;;25.00;11.73;;;10.20;99.90;;;;;;5055149;28;20119;-81
2022/10/13 03:29:32;;;;;;;20.63;11.10;;;10.30;99.90;;;;;;5072269;28;20087;-80
2022/10/13 03:31:58;;;;;;;23.55;11.80;;;10.30;99.90;;;;;;5055143;28;20043;-80
2022/10/13 03:34:24;;;;;;;22.85;11.57;;;10.30;99.90;;;;;;5054428;28;20045;-80
2022/10/13 03:36:49;;;;;;;21.83;11.77;;;10.40;99.90;;;;;;5038269;28;20045;-80
2022/10/13 03:39:15;;;;;;;24.60;11.83;;;10.30;99.90;;;;;;5054816;28;20408;-80
2022/10/13 03:41:41;;;;;;;23.00;12.33;;;10.30;99.90;;;;;;5071966;28;20776;-80
2022/10/13 03:44:11;;;;;;;21.30;11.73;;;10.30;99.90;;;;;;5071561;28;20055;-80
2022/10/13 03:46:36;;;;;;;26.98;13.18;;;10.30;99.90;;;;;;5071014;28;20042;-79
2022/10/13 03:49:02;;;;;;;27.80;14.30;;;10.10;99.90;;;;;;5071452;28;20123;-80
2022/10/13 03:51:27;;;;;;;28.90;14.17;;;10.30;99.90;;;;;;5054275;28;20079;-80
2022/10/13 03:53:53;;;;;;;26.27;13.13;;;10.30;99.90;;;;;;5071010;28;20032;-80
2022/10/13 03:56:22;;;;;;;29.03;13.73;;;10.30;99.90;;;;;;5071494;28;20279;-80
2022/10/13 03:58:52;;;;;;;27.55;13.35;;;10.30;99.90;;;;;;5071301;28;20503;-80
2022/10/13 04:01:19;;;;;;;24.02;13.07;;;10.30;99.90;;;;;;5054585;28;20076;-80
2022/10/13 04:03:44;;;;;;;;;;;10.30;99.90;;;;;;5054656;28;20146;-80
2022/10/13 04:06:10;;;;;;;26.23;13.48;;;10.30;99.90;;;;;;5071204;28;20026;-80
2022/10/13 04:08:36;;;;;;;24.17;13.07;;;10.30;99.90;;;;;;5070811;28;20484;-80
2022/10/13 04:11:05;;;;;;;25.37;12.53;;;10.30;99.90;;;;;;5070876;28;20302;-80
2022/10/13 04:13:32;;;;;;;27.45;14.07;;;10.30;99.90;;;;;;5070464;28;20456;-80
2022/10/13 04:16:07;;;;;;;30.70;14.65;;;10.30;99.90;;;;;;5053064;28;20040;-79
2022/10/13 04:18:33;;;;;;;24.33;13.45;;;10.30;99.90;;;;;;5069657;28;20663;-80
2022/10/13 04:20:59;;;;;;;25.25;13.52;;;10.30;99.90;;;;;;5069902;28;20174;-80
2022/10/13 04:23:25;;;;;;;28.50;14.98;;;10.30;99.90;;;;;;5068230;28;20503;-80
2022/10/13 04:25:51;;;;;;;26.05;13.27;;;10.30;99.90;;;;;;5054060;28;20040;-80
2022/10/13 04:28:16;;;;;;;29.30;14.95;;;10.30;99.90;;;;;;5054871;28;20059;-81
2022/10/13 04:30:42;;;;;;;28.17;13.87;;;10.30;99.90;;;;;;5075036;28;20128;-80
2022/10/13 04:33:08;;;;;;;25.90;14.18;;;10.30;99.90;;;;;;5059982;28;20052;-81
2022/10/13 04:35:39;;;;;;;30.73;14.50;;;10.30;99.90;;;;;;5038894;28;20048;-81
2022/10/13 04:38:05;;;;;;;28.63;15.25;;;10.30;99.90;;;;;;5072658;28;20094;-80
2022/10/13 04:40:30;;;;;;;25.03;15.10;;;10.30;99.90;;;;;;5041555;28;20040;-79
2022/10/13 04:42:57;;;;;;;27.10;14.55;;;10.30;99.90;;;;;;5055207;28;20036;-80
2022/10/13 04:45:22;;;;;;;30.27;15.70;;;10.40;99.90;;;;;;5072647;28;20040;-80
2022/10/13 04:47:48;;;;;;;31.27;15.57;;;10.20;99.90;;;;;;5072425;28;20036;-79
2022/10/13 04:50:14;;;;;;;28.33;14.57;;;10.20;99.90;;;;;;5070811;28;20291;-79
2022/10/13 04:52:40;;;;;;;31.67;16.08;;;10.20;99.90;;;;;;5071344;28;20437;-80
2022/10/13 04:55:07;;;;;;;28.95;15.35;;;10.20;99.90;;;;;;5071539;28;20041;-79
2022/10/13 04:57:33;;;;;;;29.33;15.25;;;10.20;99.90;;;;;;5070583;28;20039;-77
2022/10/13 04:59:59;;;;;;;25.23;14.25;;;10.20;99.90;;;;;;5053552;28;20415;-75
2022/10/13 05:02:25;;;;;;;32.97;15.43;;;10.20;99.90;;;;;;5070423;28;20055;-75
2022/10/13 05:04:50;;;;;;;30.83;15.40;;;10.20;99.90;;;;;;5053510;28;20041;-75
2022/10/13 05:07:16;;;;;;;33.03;16.63;;;10.20;99.90;;;;;;5054171;28;20121;-75
2022/10/13 05:09:42;;;;;;;32.08;16.00;;;10.20;99.90;;;;;;5070336;28;20656;-75
2022/10/13 05:12:08;;;;;;;27.93;15.87;;;10.10;99.90;;;;;;5053980;28;20036;-75
2022/10/13 05:14:33;;;;;;;28.27;15.90;;;10.20;99.90;;;;;;5070193;28;20033;-75
2022/10/13 05:17:00;;;;;;;37.50;16.83;;;10.20;99.90;;;;;;5070239;28;20124;-75
2022/10/13 05:19:26;;;;;;;31.45;15.70;;;10.10;99.90;;;;;;5070210;28;20089;-75
2022/10/13 05:21:52;;;;;;;35.45;16.65;;;10.10;99.90;;;;;;5070354;28;20557;-75
2022/10/13 05:24:29;;;;;;;33.10;16.93;;;10.10;99.90;;;;;;5070289;28;20056;-75
2022/10/13 05:26:55;;;;;;;35.85;17.30;;;10.10;99.90;;;;;;5070312;28;20443;-75
2022/10/13 05:29:21;;;;;;;36.30;17.58;;;10.10;99.90;;;;;;5069102;28;20101;-75
2022/10/13 05:31:47;;;;;;;33.67;16.30;;;10.20;99.90;;;;;;5069955;28;20049;-75
2022/10/13 05:34:13;;;;;;;37.20;18.38;;;10.10;99.90;;;;;;5069619;28;20287;-75
2022/10/13 05:36:38;;;;;;;35.53;17.60;;;10.20;99.90;;;;;;5053746;28;20051;-75
2022/10/13 05:39:08;;;;;;;32.65;16.35;;;10.20;99.90;;;;;;5053088;28;20058;-75
2022/10/13 05:41:34;;;;;;;33.67;18.25;;;10.20;99.90;;;;;;5070115;28;20123;-75
2022/10/13 05:44:02;;;;;;;35.17;17.55;;;10.20;99.90;;;;;;5053257;28;20116;-75
2022/10/13 05:46:28;;;;;;;32.65;16.90;;;10.10;99.90;;;;;;5070136;28;20067;-75
2022/10/13 05:48:54;;;;;;;36.22;17.75;;;10.20;99.90;;;;;;5048721;28;20514;-75
2022/10/13 05:51:24;;;;;;;33.33;18.52;;;10.20;99.90;;;;;;5070177;28;20041;-75
2022/10/13 05:54:14;;;;;;;39.25;18.90;;;10.20;99.90;;;;;;5069835;28;20052;-76
2022/10/13 05:57:05;;;;;;;37.72;18.63;;;10.20;99.90;;;;;;5053415;28;20569;-75
2022/10/13 05:59:40;;;;;;;40.75;18.98;;;10.20;99.90;;;;;;5061892;28;20400;-76
2022/10/13 06:02:09;;;;;;;41.53;19.52;;;10.20;99.90;;;;;;5067723;28;20037;-75
2022/10/13 06:04:39;;;;;;;38.70;18.13;;;10.20;99.90;;;;;;5053070;28;20526;-76
2022/10/13 06:07:06;;;;;;;41.42;20.23;;;10.20;99.90;;;;;;5069628;28;20040;-76
2022/10/13 06:09:36;;;;;;;42.50;21.42;;;10.20;99.90;;;;;;5053041;28;20070;-76
2022/10/13 06:12:03;;;;;;;40.40;21.15;;;10.20;99.90;;;;;;5067723;28;20040;-76
2022/10/13 06:14:28;;;;;;;;;;;10.20;99.90;;;;;;5070403;28;20354;-76
2022/10/13 06:16:55;;;;;;;40.42;20.48;;;10.30;99.90;;;;;;5053228;28;19974;-76
2022/10/13 06:19:20;;;;;;;41.50;18.83;;;10.30;99.90;;;;;;5070029;28;20037;-76
2022/10/13 06:21:49;;;;;;;40.33;20.00;;;10.30;99.90;;;;;;5053626;28;20113;-76
2022/10/13 06:24:15;;;;;;;41.08;21.70;;;10.30;99.90;;;;;;5050929;28;20047;-76
2022/10/13 06:26:41;;;;;;;36.58;19.45;;;10.30;99.90;;;;;;5053158;28;20036;-76
2022/10/13 06:29:07;;;;;;;41.22;19.77;;;10.40;99.90;;;;;;5053229;28;20048;-76
2022/10/13 06:31:33;;;;;;;41.70;19.80;;;10.40;99.90;;;;;;5069829;28;20402;-76
2022/10/13 06:33:58;;;;;;;42.43;19.97;;;10.40;99.90;;;;;;5070100;28;20076;-76
2022/10/13 06:36:24;;;;;;;41.25;20.75;;;10.40;99.90;;;;;;5070085;28;20275;-76
2022/10/13 06:38:50;;;;;;;38.42;18.83;;;10.50;99.90;;;;;;5053180;28;20041;-76
2022/10/13 06:41:16;;;;;;;44.83;22.17;;;10.50;99.90;;;;;;5069807;28;20480;-77
2022/10/13 06:43:43;;;;;;;43.05;21.13;;;10.60;99.90;;;;;;5073501;28;20488;-76
2022/10/13 06:46:10;;;;;;;40.45;20.67;;;10.60;99.90;;;;;;5056600;28;20054;-76
2022/10/13 06:48:36;;;;;;;40.85;21.40;;;10.90;99.90;;;;;;5073271;28;20036;-76
2022/10/13 06:51:04;;;;;;;40.67;20.80;;;10.60;99.90;;;;;;5073179;28;20511;-76
2022/10/13 06:53:31;;;;;;;40.40;20.73;;;10.70;99.90;;;;;;5054502;28;20041;-76
2022/10/13 06:55:58;;;;;;;38.63;20.85;;;10.70;99.90;;;;;;5073008;28;20032;-77
2022/10/13 06:58:24;;;;;;;33.25;17.77;;;10.70;99.90;;;;;;5072921;28;20125;-76
2022/10/13 07:00:50;;;;;;;41.95;20.27;;;10.80;99.90;;;;;;5073176;28;20090;-77
2022/10/13 07:03:15;;;;;;;41.72;20.48;;;10.80;99.90;;;;;;5056251;28;20094;-77
2022/10/13 07:05:41;;;;;;;43.47;20.90;;;10.80;99.90;;;;;;5072727;28;20048;-77
2022/10/13 07:08:07;;;;;;;36.60;19.50;;;10.80;99.90;;;;;;5072812;28;20090;-76
2022/10/13 07:10:32;;;;;;;36.35;19.77;;;10.90;99.90;;;;;;5072684;28;20044;-77
2022/10/13 07:12:58;;;;;;;35.67;19.67;;;10.90;99.90;;;;;;5039602;28;20032;-77
2022/10/13 07:15:24;;;;;;;35.40;20.20;;;10.90;99.90;;;;;;5072691;28;20484;-76
2022/10/13 07:17:52;;;;;;;39.63;19.95;;;11.00;99.90;;;;;;5072737;28;20275;-76
2022/10/13 07:20:20;;;;;;;42.65;21.17;;;11.00;99.90;;;;;;5072770;28;20553;-76
2022/10/13 07:22:46;;;;;;;42.03;21.42;;;11.00;99.90;;;;;;5072779;28;20036;-76
2022/10/13 07:25:12;;;;;;;39.80;19.55;;;11.10;99.90;;;;;;5072357;28;20084;-76
2022/10/13 07:27:39;;;;;;;38.78;21.15;;;11.20;99.90;;;;;;5072897;28;20130;-76
2022/10/13 07:30:06;;;;;;;34.28;19.00;;;11.20;99.90;;;;;;5072373;28;20427;-76
2022/10/13 07:32:32;;;;;;;37.35;20.02;;;11.30;99.90;;;;;;5055504;28;20043;-76
2022/10/13 07:34:58;;;;;;;42.60;21.65;;;11.30;99.90;;;;;;5055839;28;20123;-76
2022/10/13 07:37:25;;;;;;;40.05;20.73;;;11.40;99.90;;;;;;5072247;28;20032;-76
2022/10/13 07:39:50;;;;;;;43.90;19.95;;;11.40;99.90;;;;;;5055905;28;20488;-76
2022/10/13 07:42:16;;;;;;;41.80;20.40;;;11.50;99.90;;;;;;5072737;28;20048;-76
2022/10/13 07:44:42;;;;;;;36.42;19.60;;;11.50;99.90;;;;;;5072315;28;20045;-76
2022/10/13 07:47:08;;;;;;;34.70;19.45;;;11.50;99.90;;;;;;5072357;28;20051;-76
2022/10/13 07:49:34;;;;;;;37.05;19.65;;;11.50;99.90;;;;;;5055579;28;20048;-76
2022/10/13 07:51:59;;;;;;;33.72;18.95;;;11.50;99.90;;;;;;5055688;28;20445;-76
2022/10/13 07:54:28;;;;;;;34.20;18.05;;;11.50;99.90;;;;;;5071897;28;20041;-76
2022/10/13 07:56:54;;;;;;;34.05;18.63;;;11.60;99.90;;;;;;5038331;28;20052;-76
2022/10/13 07:59:20;;;;;;;36.03;18.95;;;11.60;99.90;;;;;;5054976;28;20036;-76
2022/10/13 08:01:46;;;;;;;35.45;19.52;;;11.60;99.90;;;;;;5055353;28;20510;-76
2022/10/13 08:04:12;;;;;;;35.58;19.23;;;11.70;99.90;;;;;;5071812;28;20044;-76
2022/10/13 08:06:38;;;;;;;37.50;18.37;;;11.70;99.90;;;;;;5055119;28;20048;-76
2022/10/13 08:09:04;;;;;;;41.15;18.65;;;11.80;99.90;;;;;;5071903;28;20123;-76
2022/10/13 08:11:30;;;;;;;32.08;18.45;;;11.80;99.90;;;;;;5054948;28;20041;-76
2022/10/13 08:13:59;;;;;;;42.63;20.38;;;11.90;99.90;;;;;;5071791;28;20043;-76
2022/10/13 08:16:27;;;;;;;36.85;19.55;;;11.90;99.90;;;;;;5071390;28;20036;-76
2022/10/13 08:18:53;;;;;;;36.03;18.95;;;11.90;99.90;;;;;;5069661;28;20442;-76
2022/10/13 08:21:21;;;;;;;31.10;16.30;;;11.90;99.90;;;;;;5071479;28;20049;-77
2022/10/13 08:23:47;;;;;;;38.20;18.63;;;11.90;99.90;;;;;;5071609;28;20095;-77
2022/10/13 08:26:27;;;;;;;41.42;20.05;;;11.90;99.90;;;;;;5071555;28;20038;-77
2022/10/13 08:28:53;;;;;;;35.75;18.75;;;11.90;99.90;;;;;;5071883;28;20036;-77
2022/10/13 08:31:19;;;;;;;31.45;17.58;;;12.00;99.90;;;;;;5071243;28;20427;-77
2022/10/13 08:33:50;;;;;;;31.02;15.95;;;12.00;99.90;;;;;;5068713;28;20044;-77
2022/10/13 08:36:19;;;;;;;39.40;19.70;;;12.00;99.90;;;;;;5071156;28;20041;-77
2022/10/13 08:38:44;;;;;;;38.08;20.25;;;12.10;99.90;;;;;;5054638;28;20116;-77
2022/10/13 08:41:22;;;;;;;36.33;17.88;;;12.10;99.90;;;;;;5038433;28;20083;-77
2022/10/13 08:43:51;;;;;;;34.50;19.73;;;12.10;99.90;;;;;;5069633;28;20090;-77
2022/10/13 08:46:37;;;;;;;36.72;18.42;;;12.20;99.90;;;;;;5071247;28;20037;-77
2022/10/13 08:49:05;;;;;;;34.85;19.40;;;12.20;99.90;;;;;;5070078;28;20787;-76
2022/10/13 08:51:30;;;;;;;37.15;20.35;;;12.20;99.90;;;;;;5070904;28;20396;-76
2022/10/13 08:53:57;;;;;;;34.65;18.80;;;12.30;99.90;;;;;;5071306;28;20036;-77
2022/10/13 08:56:33;;;;;;;37.92;20.48;;;12.30;99.90;;;;;;5070875;28;20044;-77
2022/10/13 08:59:00;;;;;;;35.53;21.27;;;12.30;99.90;;;;;;5069654;28;20042;-77
2022/10/13 09:01:34;;;;;;;38.78;19.98;;;12.40;99.90;;;;;;5070896;28;20460;-77
2022/10/13 09:04:18;;;;;;;39.05;20.90;;;12.40;99.90;;;;;;5050568;28;20097;-77
2022/10/13 09:06:51;;;;;;;40.47;21.20;;;12.40;99.90;;;;;;5067777;28;20045;-76
2022/10/13 09:09:17;;;;;;;40.55;20.45;;;12.40;99.90;;;;;;5071034;28;20044;-76
2022/10/13 09:11:46;;;;;;;35.92;19.73;;;12.40;99.90;;;;;;5070257;28;20066;-76
2022/10/13 09:14:21;;;;;;;41.55;22.38;;;12.40;99.90;;;;;;5053801;28;20036;-76
2022/10/13 09:16:48;;;;;;;38.63;20.40;;;12.40;99.90;;;;;;5070649;28;20059;-76
2022/10/13 09:19:28;;;;;;;39.67;22.40;;;12.40;99.90;;;;;;5054114;28;20097;-76
2022/10/13 09:21:57;;;;;;;41.63;22.20;;;12.50;99.90;;;;;;5069680;28;20040;-76
2022/10/13 09:24:25;;;;;;;46.92;22.35;;;12.50;99.90;;;;;;5065754;28;20105;-76
2022/10/13 09:27:05;;;;;;;41.22;22.50;;;12.50;99.90;;;;;;5070230;28;20045;-76
2022/10/13 09:29:31;;;;;;;43.33;22.23;;;12.60;99.90;;;;;;5069507;28;20432;-76
2022/10/13 09:32:19;;;;;;;40.55;22.55;;;12.60;99.90;;;;;;5053793;28;20120;-76
2022/10/13 09:34:45;;;;;;;;;;;12.60;99.90;;;;;;5069535;28;20072;-76
2022/10/13 09:37:20;;;;;;;44.90;22.17;;;12.70;99.90;;;;;;5053742;28;19916;-76
2022/10/13 09:39:58;;;;;;;42.63;22.20;;;12.70;99.90;;;;;;5070366;28;20041;-76
2022/10/13 09:42:26;;;;;;;46.13;23.75;;;12.80;99.90;;;;;;5070231;28;20036;-76
2022/10/13 09:45:10;;;;;;;37.83;21.33;;;12.80;99.90;;;;;;5061348;28;20468;-76
2022/10/13 09:47:36;;;;;;;39.50;22.10;;;12.80;99.90;;;;;;5066402;28;20377;-76
2022/10/13 09:50:21;;;;;;;37.92;19.83;;;12.90;99.90;;;;;;5070567;28;20377;-76
2022/10/13 09:52:48;;;;;;;43.38;21.75;;;12.90;99.90;;;;;;5067832;28;20032;-76
2022/10/13 09:55:33;;;;;;;42.40;22.88;;;12.90;99.90;;;;;;5070172;28;20496;-76
2022/10/13 09:58:26;;;;;;;43.10;23.08;;;12.90;99.90;;;;;;5050909;28;20068;-76
2022/10/13 10:00:53;;;;;;;38.88;22.30;;;13.00;99.90;;;;;;5065059;28;20091;-76
2022/10/13 10:03:26;;;;;;;38.92;22.48;;;13.00;99.90;;;;;;5050828;28;20036;-76
2022/10/13 10:05:55;;;;;;;40.03;21.80;;;13.00;99.90;;;;;;5069846;28;20048;-76
2022/10/13 10:08:44;;;;;;;38.63;21.98;;;13.10;99.90;;;;;;5069670;28;20161;-76
2022/10/13 10:11:32;;;;;;;34.50;21.48;;;13.20;99.90;;;;;;5070320;28;20090;-76
2022/10/13 10:14:08;;;;;;;36.20;20.60;;;13.20;99.90;;;;;;5059128;28;20060;-76
2022/10/13 10:16:42;;;;;;;37.88;21.15;;;13.30;99.90;;;;;;5070088;28;20033;-76
2022/10/13 10:19:32;;;;;;;38.05;21.95;;;13.30;99.90;;;;;;5071520;28;20145;-76
2022/10/13 10:22:21;;;;;;;36.38;20.85;;;13.30;99.90;;;;;;5056235;28;20110;-76
2022/10/13 10:25:28;;;;;;;32.95;20.48;;;13.30;99.90;;;;;;5073175;28;20041;-76
2022/10/13 10:28:21;;;;;;;36.25;20.15;;;13.30;99.90;;;;;;5029083;28;20056;-76
2022/10/13 10:31:02;;;;;;;36.40;19.60;;;13.30;99.90;;;;;;5072208;28;20045;-76
2022/10/13 10:33:57;;;;;;;35.25;20.65;;;13.20;99.90;;;;;;5072531;28;20504;-76
2022/10/13 10:36:37;;;;;;;39.17;20.80;;;13.20;99.90;;;;;;5070221;28;20041;-76
2022/10/13 10:39:29;;;;;;;40.42;20.80;;;13.20;99.90;;;;;;5070669;28;20420;-76
2022/10/13 10:42:05;;;;;;;33.35;19.75;;;13.20;99.90;;;;;;5070165;28;20040;-76
2022/10/13 10:44:42;;;;;;;34.40;20.00;;;13.20;99.90;;;;;;5072209;28;20047;-76
2022/10/13 10:47:31;;;;;;;37.20;20.85;;;13.30;99.90;;;;;;5073198;28;20449;-76
2022/10/13 10:50:04;;;;;;;35.78;20.77;;;13.30;99.90;;;;;;5071723;28;20048;-76
2022/10/13 10:52:55;;;;;;;32.30;19.25;;;13.30;99.90;;;;;;5072919;28;20040;-76
2022/10/13 10:55:36;;;;;;;29.35;18.42;;;13.30;99.90;;;;;;5072853;28;20131;-76
2022/10/13 10:58:16;;;;;;;30.58;18.30;;;13.30;99.90;;;;;;5070772;28;20044;-76
2022/10/13 11:01:02;;;;;;;30.40;18.02;;;13.30;99.90;;;;;;5054488;28;20036;-76
2022/10/13 11:03:38;;;;;;;33.50;19.55;;;13.30;99.90;;;;;;5071922;28;20044;-76
2022/10/13 11:06:11;;;;;;;35.05;20.40;;;13.30;99.90;;;;;;5069854;28;20054;-76
2022/10/13 11:08:41;;;;;;;34.50;18.83;;;13.30;99.90;;;;;;5070410;28;20036;-76
2022/10/13 11:11:19;;;;;;;31.98;18.48;;;13.40;99.90;;;;;;5072427;28;20041;-76
2022/10/13 11:13:58;;;;;;;27.88;16.92;;;13.40;99.90;;;;;;5072328;28;20068;-76
2022/10/13 11:17:09;;;;;;;29.17;17.65;;;13.50;99.90;;;;;;5055670;28;20064;-76
2022/10/13 11:19:37;;;;;;;29.73;18.33;;;13.60;99.90;;;;;;5071878;28;20036;-76
2022/10/13 11:22:03;;;;;;;31.00;18.77;;;13.60;99.90;;;;;;5072629;28;20093;-76
2022/10/13 11:24:40;;;;;;;26.37;16.93;;;13.60;99.90;;;;;;5072252;28;20032;-76
2022/10/13 11:27:15;;;;;;;29.77;17.13;;;13.70;99.90;;;;;;5071405;28;20143;-76
2022/10/13 11:29:56;;;;;;;29.48;18.42;;;13.80;99.90;;;;;;5070397;28;20492;-76
2022/10/13 11:35:06;;;;;;;29.73;18.08;;;13.90;99.90;;;;;;5068299;28;20135;-76
2022/10/13 11:37:57;;;;;;;26.50;17.67;;;13.90;99.90;;;;;;5050578;28;20044;-76
2022/10/13 11:40:50;;;;;;;23.90;16.92;;;14.00;99.90;;;;;;5071749;28;20048;-76
2022/10/13 11:43:16;;;;;;;30.63;17.35;;;14.00;99.90;;;;;;5072125;28;20377;-76
2022/10/13 11:46:34;;;;;;;26.92;15.77;;;13.90;99.90;;;;;;5054896;28;20066;-76
2022/10/13 11:49:21;;;;;;;24.92;15.38;;;14.00;99.90;;;;;;5007607;28;20131;-76
2022/10/13 11:52:12;;;;;;;23.40;15.03;;;13.90;99.90;;;;;;5014649;28;20053;-76
2022/10/13 11:55:16;;;;;;;24.67;16.17;;;14.00;99.90;;;;;;5044596;28;20971;-76
2022/10/13 11:57:42;;;;;;;25.10;17.23;;;13.90;99.90;;;;;;5009522;28;20045;-76
2022/10/13 12:00:17;;;;;;;23.08;15.25;;;14.00;99.90;;;;;;5060483;28;20186;-76
2022/10/13 12:02:51;;;;;;;28.45;16.92;;;14.00;99.90;;;;;;5050493;28;20052;-76
2022/10/13 12:05:22;;;;;;;26.23;16.83;;;13.90;99.90;;;;;;5055324;28;20131;-76
2022/10/13 12:07:50;;;;;;;30.38;17.83;;;14.00;99.90;;;;;;5071716;28;20041;-76
2022/10/13 12:10:32;;;;;;;25.77;17.08;;;14.00;99.90;;;;;;5071412;28;20115;-76
2022/10/13 12:12:58;;;;;;;27.17;17.35;;;14.10;99.90;;;;;;5071456;28;20032;-76
2022/10/13 12:15:41;;;;;;;26.95;16.23;;;14.10;99.90;;;;;;5054843;28;20371;-76
2022/10/13 12:18:33;;;;;;;25.98;15.93;;;14.10;99.90;;;;;;5071533;28;20175;-77
2022/10/13 12:21:10;;;;;;;25.08;15.82;;;14.10;99.90;;;;;;5061156;28;20488;-76
2022/10/13 12:23:36;;;;;;;25.52;14.95;;;14.20;99.90;;;;;;5070988;28;20041;-76
2022/10/13 12:26:03;;;;;;;26.67;15.93;;;14.20;99.90;;;;;;5071662;28;20376;-76
2022/10/13 12:28:49;;;;;;;26.05;16.80;;;14.30;99.90;;;;;;5070949;28;20036;-76
2022/10/13 12:31:22;;;;;;;25.77;16.08;;;14.20;99.90;;;;;;5071821;28;20040;-76
2022/10/13 12:33:56;;;;;;;23.30;14.77;;;14.30;99.90;;;;;;5069053;28;20136;-76
2022/10/13 12:36:33;;;;;;;27.70;16.92;;;14.30;99.90;;;;;;5069370;28;20376;-76
2022/10/13 12:39:06;;;;;;;24.17;16.60;;;14.40;99.90;;;;;;5070478;28;20028;-76
2022/10/13 12:41:38;;;;;;;26.75;15.15;;;14.40;99.90;;;;;;5054339;28;20488;-76
2022/10/13 12:44:11;;;;;;;25.65;16.30;;;14.40;99.90;;;;;;5070965;28;20044;-76
2022/10/13 12:46:41;;;;;;;23.73;16.25;;;14.50;99.90;;;;;;5054197;28;20581;-76
2022/10/13 12:49:19;;;;;;;25.25;15.93;;;14.40;99.90;;;;;;5070931;28;20047;-76
2022/10/13 12:51:55;;;;;;;24.80;15.23;;;14.40;99.90;;;;;;5069780;28;20036;-76
2022/10/13 12:54:27;;;;;;;24.25;14.77;;;14.40;99.90;;;;;;5069780;28;20044;-76